Sedgwick Reserve, California Weather observations

Data are for 10 minute period ending at time listed.
 Day   Time   Solar   Ave.   Ave.  Ave.  Vector  Max.   Baro.   Total    
  of    of     Rad.   Air    Rel.  Wind   Wind   Wind  Press.  Precip.   
Year   Day            Temp.  Hum.  Speed  Dir.   Gust                    
2017   (PST)  Kw/m2    F      %     mph   deg.    mph    mb.     in.     
-------------------------------------------------------------------------
  84   20:40   0.00   50.4    90    1.9   260     3.7   975.9    0.00 
  84   20:50   0.00   49.9    89    3.2   109     7.7   975.9    0.00 
  84   21:00   0.00   48.7    92    3.5   118     8.5   975.8    0.00 
  84   21:10   0.00   48.3    93    3.7   108     6.6   975.8    0.00 
  84   21:20   0.00   48.0    95    3.1    93     6.9   975.9    0.00 
  84   21:30   0.00   47.9    96    2.4    38     4.9   976.0    0.00 
  84   21:40   0.00   47.9    96    2.3    48     3.9   976.0    0.00 
  84   21:50   0.00   48.1    97    2.4    51     3.7   975.9    0.00 
  84   22:00   0.00   48.3    97    2.0    54     5.4   975.8    0.00 
  84   22:10   0.00   48.4    97    1.1    55     3.2   975.8    0.00 
  84   22:20   0.00   48.6    98    0.7    42     2.6   976.0    0.00 
  84   22:30   0.00   48.6    98    1.3    47     2.9   975.8    0.00 
  84   22:40   0.00   48.7    98    0.7   226     2.0   975.8    0.00 
  84   22:50   0.00   48.7    98    1.9    62     3.6   975.5    0.00 
  84   23:00   0.00   48.7    98    0.5   353     1.6   975.6    0.00 
  84   23:10   0.00   48.8    98    1.2    31     2.4   975.6    0.00 
  84   23:20   0.00   48.8    98    1.4    58     2.5   975.6    0.00 
  84   23:30   0.00   48.8    98    0.7    65     3.1   975.6    0.00 
  84   23:40   0.00   49.0    98    0.7   102     2.4   975.7    0.00 
  84   23:50   0.00   48.9    97    1.0    82     3.1   975.7    0.00 
  85    0:00   0.00   48.7    97    1.0   100     2.3   975.7    0.00 
  85    0:10   0.00   48.6    97    1.6   175     2.6   975.5    0.00 
  85    0:20   0.00   48.7    97    0.8   100     2.0   975.4    0.00 
  85    0:30   0.00   48.7    97    1.9   178     3.5   975.3    0.00 
  85    0:40   0.00   48.4    97    1.9   228     3.1   975.3    0.00 
  85    0:50   0.00   48.5    97    1.7   179     3.5   975.3    0.00 
  85    1:00   0.00   48.3    97    2.2   219     4.2   975.3    0.00 
  85    1:10   0.00   48.4    97    0.8   166     2.6   975.3    0.00 
  85    1:20   0.00   48.4    97    0.6   337     2.3   975.3    0.00 
  85    1:30   0.00   48.5    97    0.9    58     3.7   975.2    0.00 
  85    1:40   0.00   48.5    97    1.3   115     3.6   975.1    0.00 
  85    1:50   0.00   48.4    97    1.5   145     3.6   975.1    0.00 
  85    2:00   0.00   48.4    97    1.5   150     3.5   975.1    0.00 
  85    2:10   0.00   48.3    97    1.5   182     3.4   975.1    0.00 
  85    2:20   0.00   48.3    97    1.0    99     2.3   975.0    0.00 
  85    2:30   0.00   48.3    97    0.7   165     2.0   975.0    0.00 
  85    2:40   0.00   48.3    97    1.2    35     2.8   974.8    0.00 
  85    2:50   0.00   47.9    96    2.1     9     3.8   974.6    0.00 
  85    3:00   0.00   48.0    96    0.6   301     1.7   974.5    0.00 
  85    3:10   0.00   48.0    96    1.7   163     3.7   974.5    0.00 
  85    3:20   0.00   47.7    96    1.4   208     2.6   974.5    0.00 
  85    3:30   0.00   47.7    96    0.3    70     1.7   974.5    0.00 
  85    3:40   0.00   47.8    96    0.9   115     2.6   974.5    0.00 
  85    3:50   0.00   47.4    96    2.9   219     3.9   974.5    0.00 
  85    4:00   0.00   47.4    97    1.2   240     3.2   974.5    0.00 
  85    4:10   0.00   47.5    97    1.4   289     2.0   974.5    0.00 
  85    4:20   0.00   47.5    97    1.5   271     2.5   974.6    0.00 
  85    4:30   0.00   47.5    97    1.3     7     2.4   974.5    0.00 
  85    4:40   0.00   47.7    97    0.4   106     2.4   974.6    0.00 
  85    4:50   0.00   47.5    97    1.9    97     3.4   974.6    0.00 
  85    5:00   0.00   47.5    97    1.2   149     4.7   974.6    0.00 
  85    5:10   0.00   47.4    97    2.5   111     5.8   974.5    0.00 
  85    5:20   0.00   47.4    97    2.8   129     5.0   974.5    0.00 
  85    5:30   0.00   47.3    97    2.4   161     4.2   974.5    0.00 
  85    5:40   0.00   47.2    98    1.8   146     3.5   974.6    0.00 
  85    5:50   0.00   47.2    98    1.0   110     2.3   974.6    0.00 
  85    6:00   0.00   47.2    98    1.2   232     2.7   974.8    0.00 
  85    6:10   0.00   47.0    98    2.2   236     4.2   975.0    0.00 
  85    6:20   0.00   47.0    98    1.5   240     3.4   975.0    0.00 
  85    6:30   0.01   46.7    98    1.1   226     2.6   975.1    0.00 
  85    6:40   0.02   46.9    99    1.3   164     2.7   975.2    0.00 
  85    6:50   0.03   46.9    99    1.5   137     3.2   975.3    0.00 
  85    7:00   0.04   47.0    99    1.2   118     2.5   975.5    0.00 
  85    7:10   0.06   47.0    99    1.5     4     3.2   975.4    0.00 
  85    7:20   0.08   47.1    99    2.8    38     4.3   975.5    0.00 
  85    7:30   0.10   47.4    99    2.0    93     3.4   975.5    0.00 
  85    7:40   0.12   47.2    99    0.4    81     1.9   975.6    0.00 
  85    7:50   0.12   47.2    99    1.6     4     2.7   975.7    0.00 
  85    8:00   0.15   47.4    99    1.7    35     3.8   975.9    0.00 
  85    8:10   0.17   47.9    98    1.3   231     3.4   976.2    0.00 
  85    8:20   0.18   48.5    98    2.4   203     5.7   976.2    0.00 
  85    8:30   0.21   48.7    96    3.4   264     5.0   976.2    0.00 
  85    8:40   0.37   50.0    94    1.6    29     3.6   976.1    0.00 
  85    8:50   0.34   52.1    88    1.6   167     3.9   976.3    0.00 
  85    9:00   0.27   51.6    86    1.7   211     4.5   976.3    0.00 
  85    9:10   0.53   52.6    85    2.3   147     4.0   976.3    0.00 
  85    9:20   0.65   55.6    79    2.5   131     6.4   976.5    0.00 
  85    9:30   0.66   56.0    78    2.7   122     5.3   976.6    0.00 
  85    9:40   0.66   58.1    74    3.3    91     7.5   976.5    0.00 
  85    9:50   0.79   58.3    73    3.8   146     7.3   976.5    0.00 
  85   10:00   0.73   58.2    72    2.5   223     6.6   976.5    0.00 
  85   10:10   0.75   58.4    72    5.5   250    11.0   976.6    0.00 
  85   10:20   0.57   58.8    72    4.6   270     9.7   976.7    0.00 
  85   10:30   0.64   58.7    73    6.8   253    11.1   976.6    0.00 
  85   10:40   0.82   59.6    72    7.4   242    11.4   976.6    0.00 
  85   10:50   0.73   60.6    71    5.7   233    11.8   976.5    0.00 
  85   11:00   0.75   60.7    64    7.9   279    11.8   976.3    0.00 
  85   11:10   0.87   61.7    62   10.1   270    17.8   976.3    0.00 
  85   11:20   0.88   61.6    64   11.2   255    19.1   976.3    0.00 
  85   11:30   0.75   62.6    66   10.6   278    18.6   976.3    0.00 
  85   11:40   0.86   63.2    65   10.8   280    18.8   976.3    0.00 
  85   11:50   0.93   64.1    63   13.0   296    19.8   976.3    0.00 
  85   12:00   0.80   63.1    65   13.3   275    22.8   976.1    0.00 
  85   12:10   0.84   63.0    65   13.8   280    23.7   976.1    0.00 
  85   12:20   0.77   63.2    65   15.6   278    24.9   976.0    0.00 
  85   12:30   0.48   61.8    67   13.6   282    22.9   976.0    0.00 
  85   12:40   0.44   61.3    68   14.8   279    24.8   976.0    0.00 
  85   12:50   0.46   61.6    67   12.9   289    23.7   976.0    0.00 
  85   13:00   0.74   62.0    65   14.4   282    22.6   975.9    0.00 
  85   13:10   0.59   63.2    63   13.6   296    26.6   975.9    0.00 
  85   13:20   0.59   62.5    62   14.9   295    23.2   975.8    0.00 
  85   13:30   0.87   63.9    60   14.0   289    25.4   975.6    0.00 
  85   13:40   0.85   63.4    62   15.7   279    25.1   975.5    0.00 
  85   13:50   0.69   62.6    61   18.5   276    29.1   975.3    0.00 
  85   14:00   0.50   61.6    62   16.5   277    26.7   975.2    0.00 
  85   14:10   0.74   63.1    61   13.4   277    20.5   975.2    0.00 
  85   14:20   0.62   63.4    61   15.8   273    23.0   975.1    0.00 
  85   14:30   0.68   64.4    60   13.5   275    21.9   975.1    0.00 
  85   14:40   0.60   64.5    60   14.7   277    25.0   975.1    0.00 
  85   14:50   0.53   63.6    62   14.3   284    24.2   975.1    0.00 
  85   15:00   0.45   62.3    65   15.8   278    25.0   975.1    0.00 
  85   15:10   0.44   61.5    65   17.1   275    26.2   975.1    0.00 
  85   15:20   0.46   61.6    65   14.6   287    25.1   975.0    0.00 
  85   15:30   0.38   61.5    66   14.0   283    24.3   975.0    0.00 
  85   15:40   0.25   60.5    67   12.6   281    24.2   975.0    0.00 
  85   15:50   0.31   60.3    66   14.3   291    27.4   974.9    0.00 
  85   16:00   0.36   60.1    66   13.8   287    25.9   975.0    0.00 
  85   16:10   0.34   61.3    63   13.9   302    26.0   975.1    0.00 
  85   16:20   0.25   60.7    63   14.3   301    26.5   975.1    0.00 
  85   16:30   0.24   59.8    64   15.0   294    25.9   975.0    0.00 
  85   16:40   0.20   59.8    65   11.5   299    20.3   975.0    0.00 
  85   16:50   0.17   59.2    67   12.2   297    22.3   974.9    0.00 
  85   17:00   0.13   58.7    69   12.1   300    20.3   974.9    0.00 
  85   17:10   0.12   57.8    70   13.0   289    23.4   974.9    0.00 
  85   17:20   0.11   57.8    71   11.8   290    22.0   974.9    0.00 
  85   17:30   0.07   57.4    71   12.6   288    21.4   974.8    0.00 
  85   17:40   0.05   56.8    72   12.3   287    22.3   974.9    0.00 
  85   17:50   0.03   56.3    73   12.8   281    20.8   975.0    0.00 
  85   18:00   0.02   55.6    74   14.0   279    24.9   975.0    0.00 
  85   18:10   0.01   55.0    74   13.1   279    20.9   975.0    0.00 
  85   18:20   0.00   54.6    74   12.7   274    18.1   975.1    0.00 
  85   18:30   0.00   54.3    74   13.7   272    19.4   975.0    0.00 
  85   18:40   0.00   53.9    75   12.3   272    18.6   975.2    0.00 
  85   18:50   0.00   53.5    76   10.8   274    16.4   975.3    0.00 
  85   19:00   0.00   53.1    77   10.3   278    15.9   975.4    0.00 
  85   19:10   0.00   52.6    78    8.7   286    18.6   975.5    0.00 
  85   19:20   0.00   52.1    80    6.3   290    14.2   975.6    0.00 
  85   19:30   0.00   51.6    83    7.3   291    14.9   975.7    0.00 
  85   19:40   0.00   51.3    84    7.7   276    12.7   975.8    0.00 
  85   19:50   0.00   51.0    85    8.1   279    13.3   975.9    0.00 
  85   20:00   0.00   50.9    84    7.9   285    15.1   976.0    0.00 
  85   20:10   0.00   51.1    82    5.9   280    11.5   976.1    0.00 
  85   20:20   0.00   50.6    85   10.3   273    14.2   976.2    0.00 
  85   20:30   0.00   50.3    86   12.1   275    18.7   976.2    0.00 

Return to Sedgwick Reserve graphs page.


Western Regional Climate Center,wrcc@dri.edu